Time;durP1;ratioP1;P1;durP2;ratioP2;P2;SDS_P1;SDS_P2;PMS_P1;PMS_P2;Temp;Humidity;BMP_temperature;BMP_pressure;BME280_temperature;BME280_humidity;BME280_pressure;Samples;Min_cycle;Max_cycle;Signal;HPM_P1;HPM_P2
2022/09/03 00:01:42;;;;;;;1.90;1.02;;;16.90;75.50;;;;;;5054145;28;20057;-65
2022/09/03 00:04:24;;;;;;;5.13;1.20;;;16.90;75.70;;;;;;5072045;28;20090;-65
2022/09/03 00:07:01;;;;;;;4.18;1.23;;;16.80;76.00;;;;;;5070578;28;20055;-65
2022/09/03 00:09:36;;;;;;;2.53;1.30;;;16.80;75.90;;;;;;5070765;28;20049;-65
2022/09/03 00:12:12;;;;;;;2.42;1.15;;;16.70;75.90;;;;;;5071026;28;20048;-65
2022/09/03 00:15:02;;;;;;;3.38;1.00;;;16.60;76.00;;;;;;5071034;28;20392;-65
2022/09/03 00:17:41;;;;;;;3.00;1.15;;;16.60;76.20;;;;;;5069821;28;20036;-65
2022/09/03 00:20:15;;;;;;;6.13;1.20;;;16.60;76.20;;;;;;5053946;28;20504;-65
2022/09/03 00:22:50;;;;;;;1.23;0.80;;;16.50;76.20;;;;;;5070647;28;20043;-65
2022/09/03 00:25:46;;;;;;;3.90;1.10;;;16.50;76.50;;;;;;5070652;28;20086;-65
2022/09/03 00:28:23;;;;;;;4.53;0.93;;;16.40;76.50;;;;;;5069666;28;20049;-65
2022/09/03 00:30:55;;;;;;;3.20;0.93;;;16.40;76.60;;;;;;5070651;28;20075;-65
2022/09/03 00:33:26;;;;;;;2.63;0.80;;;16.40;76.60;;;;;;5070566;28;20091;-65
2022/09/03 00:36:05;;;;;;;3.28;0.90;;;16.30;76.60;;;;;;5070656;28;20489;-65
2022/09/03 00:38:32;;;;;;;4.68;1.10;;;16.30;76.70;;;;;;5070719;28;20033;-65
2022/09/03 00:41:20;;;;;;;2.38;0.88;;;16.30;76.70;;;;;;5070658;28;20044;-65
2022/09/03 00:44:10;;;;;;;3.47;0.85;;;16.30;76.80;;;;;;5070475;28;20048;-65
2022/09/03 00:46:45;;;;;;;2.55;1.42;;;16.30;76.80;;;;;;5071604;28;20044;-65
2022/09/03 00:49:37;;;;;;;3.30;0.80;;;16.30;76.80;;;;;;5074949;28;20125;-64
2022/09/03 00:52:25;;;;;;;1.63;0.82;;;16.20;76.70;;;;;;5074641;28;20123;-65
2022/09/03 00:55:05;;;;;;;1.95;0.80;;;16.30;76.80;;;;;;5075642;28;20036;-65
2022/09/03 00:57:40;;;;;;;;;;;16.30;76.80;;;;;;5074683;28;20076;-65
2022/09/03 01:00:15;;;;;;;2.13;0.88;;;16.20;76.80;;;;;;5074218;28;19916;-65
2022/09/03 01:03:07;;;;;;;2.00;0.80;;;16.20;76.60;;;;;;5074158;28;20085;-65
2022/09/03 01:06:02;;;;;;;5.15;0.82;;;16.30;76.90;;;;;;5074151;28;20048;-65
2022/09/03 01:08:44;;;;;;;5.03;1.00;;;16.20;76.90;;;;;;5092998;28;20483;-67
2022/09/03 01:11:59;;;;;;;2.45;0.77;;;16.20;77.10;;;;;;5077366;28;20048;-66
2022/09/03 01:14:58;;;;;;;2.33;1.08;;;16.20;77.00;;;;;;4993510;28;20059;-65
2022/09/03 01:17:58;;;;;;;3.03;0.90;;;16.20;76.90;;;;;;5075104;28;20294;-65
2022/09/03 01:20:45;;;;;;;4.30;1.23;;;16.20;76.90;;;;;;5031691;28;20052;-65
2022/09/03 01:23:36;;;;;;;3.50;1.00;;;16.20;76.90;;;;;;5077022;28;20044;-66
2022/09/03 01:26:21;;;;;;;5.25;1.63;;;16.20;77.00;;;;;;5077067;28;20043;-65
2022/09/03 01:29:13;;;;;;;2.60;0.88;;;16.30;77.00;;;;;;5077284;28;20093;-64
2022/09/03 01:32:00;;;;;;;1.30;0.70;;;16.20;77.00;;;;;;5077194;28;20047;-65
2022/09/03 01:34:32;;;;;;;2.25;0.90;;;16.20;77.10;;;;;;5076819;28;20163;-65
2022/09/03 01:37:11;;;;;;;1.88;0.68;;;16.30;77.10;;;;;;5095244;28;20119;-66
2022/09/03 01:39:57;;;;;;;2.33;0.60;;;16.30;77.20;;;;;;5094947;28;20040;-64
2022/09/03 01:42:42;;;;;;;4.30;0.77;;;16.30;77.20;;;;;;5077013;28;20094;-65
2022/09/03 01:45:29;;;;;;;2.40;0.80;;;16.30;77.20;;;;;;5095137;28;20036;-65
2022/09/03 01:48:39;;;;;;;1.70;0.80;;;16.20;77.10;;;;;;5074391;28;20123;-66
2022/09/03 01:51:23;;;;;;;1.65;0.60;;;16.30;77.00;;;;;;5076825;28;20043;-65
2022/09/03 01:54:26;;;;;;;2.58;0.70;;;16.30;76.90;;;;;;5059779;28;20055;-65
2022/09/03 01:57:14;;;;;;;2.90;0.73;;;16.30;76.80;;;;;;5076484;28;20040;-65
2022/09/03 01:59:48;;;;;;;2.75;0.73;;;16.30;76.80;;;;;;5075548;28;20039;-65
2022/09/03 02:02:24;;;;;;;2.35;0.90;;;16.30;77.50;;;;;;5076425;28;20097;-65
2022/09/03 02:05:15;;;;;;;2.33;0.90;;;16.30;76.70;;;;;;5094642;28;20044;-65
2022/09/03 02:07:51;;;;;;;2.78;0.95;;;16.30;76.80;;;;;;5076201;28;20117;-65
2022/09/03 02:10:24;;;;;;;4.43;0.77;;;16.30;76.80;;;;;;5076269;28;20508;-65
2022/09/03 02:13:00;;;;;;;3.80;0.65;;;16.30;76.80;;;;;;5076200;28;20105;-65
2022/09/03 02:15:27;;;;;;;2.10;1.40;;;16.30;76.80;;;;;;5076420;28;20072;-64
2022/09/03 02:17:58;;;;;;;2.33;0.82;;;16.30;76.80;;;;;;5073672;28;20047;-65
2022/09/03 02:20:27;;;;;;;2.28;0.70;;;16.30;76.90;;;;;;5094483;28;20503;-65
2022/09/03 02:22:55;;;;;;;1.40;0.55;;;16.30;77.10;;;;;;5076025;28;20039;-65
2022/09/03 02:25:26;;;;;;;2.60;0.80;;;16.20;77.20;;;;;;5076255;28;20427;-65
2022/09/03 02:27:52;;;;;;;3.60;0.70;;;16.20;77.10;;;;;;5094027;28;20050;-65
2022/09/03 02:30:18;;;;;;;4.88;1.10;;;16.20;77.10;;;;;;5076169;28;20377;-65
2022/09/03 02:32:43;;;;;;;1.98;0.80;;;16.20;77.10;;;;;;5075891;28;20090;-65
2022/09/03 02:35:09;;;;;;;2.28;0.95;;;16.20;77.10;;;;;;5094125;28;20493;-65
2022/09/03 02:37:35;;;;;;;2.75;0.82;;;16.20;76.90;;;;;;5076062;28;20491;-65
2022/09/03 02:40:05;;;;;;;2.45;0.60;;;16.20;77.30;;;;;;5093784;28;20035;-64
2022/09/03 02:42:31;;;;;;;6.15;1.15;;;16.20;77.20;;;;;;5075591;28;20036;-65
2022/09/03 02:45:14;;;;;;;1.52;0.60;;;16.20;77.20;;;;;;5075877;28;20090;-66
2022/09/03 02:47:42;;;;;;;3.38;1.38;;;16.20;77.00;;;;;;5091416;28;20072;-65
2022/09/03 02:50:09;;;;;;;2.33;0.70;;;16.10;76.90;;;;;;5075790;28;20413;-65
2022/09/03 02:52:35;;;;;;;1.73;0.70;;;16.20;77.10;;;;;;5075350;28;20036;-65
2022/09/03 02:55:01;;;;;;;1.70;0.50;;;16.10;77.20;;;;;;5075391;28;20053;-65
2022/09/03 02:57:27;;;;;;;2.53;0.90;;;16.10;77.20;;;;;;5093506;28;20040;-65
2022/09/03 02:59:53;;;;;;;4.25;0.70;;;16.20;77.20;;;;;;5058579;28;20036;-65
2022/09/03 03:02:19;;;;;;;1.50;1.00;;;16.20;77.20;;;;;;5093312;28;20100;-64
2022/09/03 03:04:45;;;;;;;2.47;0.60;;;16.20;77.10;;;;;;5075196;28;20067;-65
2022/09/03 03:07:11;;;;;;;2.25;0.60;;;16.10;77.00;;;;;;5093278;28;20055;-64
2022/09/03 03:09:36;;;;;;;1.98;0.90;;;16.10;76.90;;;;;;5075147;28;20063;-65
2022/09/03 03:12:02;;;;;;;4.85;0.77;;;16.10;77.00;;;;;;5075055;28;20040;-64
2022/09/03 03:14:30;;;;;;;1.52;0.70;;;16.20;77.30;;;;;;5075077;28;20611;-65
2022/09/03 03:16:58;;;;;;;1.33;0.60;;;16.20;77.30;;;;;;5072571;28;20043;-65
2022/09/03 03:19:24;;;;;;;3.05;0.82;;;16.20;77.30;;;;;;5093040;28;20036;-65
2022/09/03 03:21:50;;;;;;;2.47;0.77;;;16.10;77.30;;;;;;5075004;28;20040;-64
2022/09/03 03:24:16;;;;;;;1.23;0.57;;;16.10;77.40;;;;;;5074781;28;20385;-65
2022/09/03 03:26:42;;;;;;;1.50;0.60;;;16.10;77.50;;;;;;5058041;28;20119;-65
2022/09/03 03:29:16;;;;;;;2.05;0.50;;;16.00;77.60;;;;;;5058084;28;20078;-65
2022/09/03 03:31:41;;;;;;;2.30;0.65;;;16.00;77.70;;;;;;5058427;28;20076;-65
2022/09/03 03:34:07;;;;;;;1.20;0.60;;;16.00;77.80;;;;;;5074526;28;20506;-65
2022/09/03 03:36:34;;;;;;;1.83;0.70;;;16.10;77.90;;;;;;5058168;28;20253;-65
2022/09/03 03:39:00;;;;;;;3.47;1.10;;;16.00;78.00;;;;;;5074991;28;20542;-65
2022/09/03 03:41:30;;;;;;;2.42;0.73;;;16.00;78.00;;;;;;5075140;28;20047;-65
2022/09/03 03:43:58;;;;;;;1.75;0.70;;;16.00;78.00;;;;;;5075216;28;20047;-65
2022/09/03 03:46:27;;;;;;;4.30;0.73;;;15.90;78.00;;;;;;5092720;28;20036;-65
2022/09/03 03:48:53;;;;;;;2.58;0.60;;;16.00;78.20;;;;;;5090525;28;20097;-65
2022/09/03 03:51:19;;;;;;;1.70;0.80;;;15.90;78.40;;;;;;5057963;28;20052;-65
2022/09/03 03:53:45;;;;;;;2.15;0.85;;;15.90;78.50;;;;;;5057621;28;20378;-65
2022/09/03 03:56:13;;;;;;;3.20;0.80;;;15.90;78.50;;;;;;5074495;28;20506;-65
2022/09/03 03:58:42;;;;;;;3.25;1.05;;;15.90;78.50;;;;;;5092321;28;20043;-65
2022/09/03 04:01:15;;;;;;;4.93;0.68;;;15.80;78.50;;;;;;5074478;28;20393;-64
2022/09/03 04:03:41;;;;;;;2.35;0.70;;;15.90;78.70;;;;;;5092434;28;20071;-65
2022/09/03 04:06:08;;;;;;;7.35;0.93;;;15.80;78.70;;;;;;5057441;28;20051;-65
2022/09/03 04:08:37;;;;;;;1.85;0.77;;;15.80;78.70;;;;;;5053868;28;20539;-65
2022/09/03 04:11:04;;;;;;;1.55;0.70;;;15.80;78.60;;;;;;5072035;28;20566;-65
2022/09/03 04:13:32;;;;;;;2.90;0.80;;;15.80;78.70;;;;;;5072101;28;20040;-65
2022/09/03 04:16:15;;;;;;;3.35;0.85;;;15.80;78.70;;;;;;5072139;28;20040;-65
2022/09/03 04:18:41;;;;;;;1.67;0.80;;;15.80;78.80;;;;;;5068244;28;20033;-65
2022/09/03 04:21:10;;;;;;;1.58;0.73;;;15.70;78.70;;;;;;5070653;28;20037;-65
2022/09/03 04:23:39;;;;;;;1.95;0.70;;;15.70;78.80;;;;;;5071608;28;20040;-65
2022/09/03 04:26:06;;;;;;;2.63;0.75;;;15.60;78.90;;;;;;5071879;28;20044;-65
2022/09/03 04:28:33;;;;;;;1.75;0.70;;;15.60;79.00;;;;;;5053891;28;20079;-65
2022/09/03 04:31:00;;;;;;;2.28;0.57;;;15.60;79.20;;;;;;5070805;28;20098;-65
2022/09/03 04:33:26;;;;;;;1.23;0.65;;;15.50;79.40;;;;;;5070478;28;20044;-65
2022/09/03 04:35:52;;;;;;;2.45;0.70;;;15.50;79.50;;;;;;5071625;28;20044;-65
2022/09/03 04:38:18;;;;;;;3.83;0.77;;;15.50;79.70;;;;;;5070534;28;20043;-65
2022/09/03 04:40:51;;;;;;;3.05;0.85;;;15.40;79.80;;;;;;5053999;28;20073;-65
2022/09/03 04:43:17;;;;;;;1.92;0.60;;;15.40;80.00;;;;;;5071782;28;20040;-65
2022/09/03 04:45:43;;;;;;;2.10;0.70;;;15.30;80.30;;;;;;5070351;28;20132;-65
2022/09/03 04:48:10;;;;;;;2.58;0.70;;;15.30;80.40;;;;;;5067986;28;20048;-65
2022/09/03 04:50:36;;;;;;;1.60;0.70;;;15.20;80.40;;;;;;5070307;28;20056;-65
2022/09/03 04:53:03;;;;;;;1.10;0.70;;;15.20;80.60;;;;;;5070559;28;20041;-64
2022/09/03 04:55:36;;;;;;;1.50;1.00;;;15.20;80.70;;;;;;5071761;28;20040;-66
2022/09/03 04:58:06;;;;;;;1.85;0.65;;;15.20;81.00;;;;;;5070316;28;20106;-64
2022/09/03 05:00:32;;;;;;;2.50;0.70;;;15.20;81.00;;;;;;5070325;28;20511;-65
2022/09/03 05:03:03;;;;;;;1.88;0.70;;;15.10;81.00;;;;;;5071488;28;20041;-65
2022/09/03 05:05:30;;;;;;;7.68;1.15;;;15.10;81.00;;;;;;5071741;28;20059;-65
2022/09/03 05:08:03;;;;;;;2.85;0.75;;;15.20;81.10;;;;;;5070165;28;20185;-66
2022/09/03 05:10:29;;;;;;;2.60;1.27;;;15.10;81.30;;;;;;5053802;28;20062;-66
2022/09/03 05:13:04;;;;;;;1.35;0.63;;;15.10;81.40;;;;;;5071438;28;20041;-66
2022/09/03 05:15:34;;;;;;;1.67;0.57;;;15.10;81.50;;;;;;5070275;28;20033;-65
2022/09/03 05:18:01;;;;;;;1.90;0.70;;;15.20;81.40;;;;;;5069182;28;20397;-66
2022/09/03 05:20:28;;;;;;;2.22;0.85;;;15.10;81.30;;;;;;5071487;28;20382;-66
2022/09/03 05:22:55;;;;;;;3.75;0.80;;;15.10;81.50;;;;;;5070061;28;20045;-66
2022/09/03 05:25:22;;;;;;;2.65;0.75;;;15.20;81.60;;;;;;5071346;28;20094;-66
2022/09/03 05:27:49;;;;;;;2.08;0.80;;;15.10;81.50;;;;;;5071292;28;20482;-66
2022/09/03 05:30:15;;;;;;;2.67;0.82;;;15.10;81.90;;;;;;5071474;28;20074;-66
2022/09/03 05:32:41;;;;;;;0.80;0.60;;;15.10;82.10;;;;;;5053316;28;20127;-65
2022/09/03 05:35:09;;;;;;;4.00;0.80;;;15.00;82.10;;;;;;5073591;28;20120;-66
2022/09/03 05:37:36;;;;;;;1.20;0.70;;;15.10;82.30;;;;;;5073574;28;20051;-66
2022/09/03 05:40:02;;;;;;;1.10;0.70;;;15.00;82.20;;;;;;5073826;28;20455;-66
2022/09/03 05:42:31;;;;;;;4.25;0.98;;;15.00;82.30;;;;;;5074631;28;20123;-66
2022/09/03 05:44:57;;;;;;;3.30;0.73;;;15.00;82.50;;;;;;5074977;28;20463;-65
2022/09/03 05:47:23;;;;;;;2.70;0.80;;;15.00;82.90;;;;;;5071039;28;20071;-66
2022/09/03 05:49:48;;;;;;;1.50;0.70;;;14.90;83.10;;;;;;5073307;28;20079;-66
2022/09/03 05:52:15;;;;;;;1.77;0.82;;;14.90;83.30;;;;;;5073316;28;20040;-65
2022/09/03 05:54:41;;;;;;;2.72;0.90;;;14.90;83.40;;;;;;5074382;28;20045;-65
2022/09/03 05:57:07;;;;;;;2.10;0.93;;;14.90;83.50;;;;;;5074383;28;20050;-66
2022/09/03 05:59:32;;;;;;;2.85;0.70;;;14.90;83.60;;;;;;5074298;28;20036;-65
2022/09/03 06:01:58;;;;;;;2.97;1.00;;;14.90;83.60;;;;;;5074570;28;20040;-65
2022/09/03 06:04:24;;;;;;;2.42;0.85;;;14.90;83.80;;;;;;5056351;28;20050;-65
2022/09/03 06:06:50;;;;;;;2.95;0.88;;;14.90;84.00;;;;;;5056442;28;20049;-65
2022/09/03 06:09:21;;;;;;;2.38;1.02;;;15.00;84.10;;;;;;5073128;28;20393;-65
2022/09/03 06:11:50;;;;;;;1.42;0.75;;;15.00;84.10;;;;;;5074109;28;20057;-63
2022/09/03 06:14:17;;;;;;;3.08;0.90;;;15.00;84.00;;;;;;5072856;28;20044;-62
2022/09/03 06:16:45;;;;;;;2.17;0.90;;;15.10;84.10;;;;;;5072837;28;20425;-64
2022/09/03 06:19:12;;;;;;;3.20;1.13;;;15.20;84.20;;;;;;5070681;28;20040;-64
2022/09/03 06:21:41;;;;;;;2.42;1.10;;;15.30;84.20;;;;;;5056055;28;20037;-64
2022/09/03 06:24:18;;;;;;;3.35;0.80;;;15.40;84.10;;;;;;5072731;28;20056;-64
2022/09/03 06:26:44;;;;;;;2.15;1.00;;;15.60;83.90;;;;;;5072654;28;20485;-64
2022/09/03 06:29:10;;;;;;;3.30;0.85;;;15.80;83.70;;;;;;5055896;28;20101;-64
2022/09/03 06:31:36;;;;;;;2.15;0.90;;;16.10;83.50;;;;;;5073835;28;20047;-64
2022/09/03 06:34:02;;;;;;;1.58;0.75;;;16.40;83.40;;;;;;5073798;28;20647;-65
2022/09/03 06:36:29;;;;;;;4.72;1.75;;;16.60;82.70;;;;;;5072770;28;20076;-63
2022/09/03 06:38:56;;;;;;;4.93;1.15;;;16.90;82.60;;;;;;5072347;28;20036;-64
2022/09/03 06:41:25;;;;;;;5.80;0.75;;;17.10;82.20;;;;;;5072627;28;20496;-64
2022/09/03 06:44:03;;;;;;;1.73;0.90;;;17.30;82.20;;;;;;5073815;28;20072;-64
2022/09/03 06:46:37;;;;;;;3.25;0.90;;;17.30;81.60;;;;;;5073174;28;20072;-64
2022/09/03 06:49:03;;;;;;;3.80;0.80;;;17.30;81.10;;;;;;5071067;28;20492;-64
2022/09/03 06:51:32;;;;;;;3.13;0.90;;;17.20;80.70;;;;;;5073397;28;20079;-67
2022/09/03 06:54:03;;;;;;;5.13;1.10;;;17.10;80.70;;;;;;5072293;28;20425;-64
2022/09/03 06:56:29;;;;;;;3.95;1.02;;;17.00;80.90;;;;;;5073503;28;20039;-64
2022/09/03 06:58:59;;;;;;;1.90;0.90;;;16.90;80.70;;;;;;5073459;28;20032;-63
2022/09/03 07:01:27;;;;;;;;;;;16.90;80.80;;;;;;5056026;28;20035;-64
2022/09/03 07:03:55;;;;;;;3.58;1.15;;;16.80;81.10;;;;;;5071908;28;19917;-64
2022/09/03 07:06:23;;;;;;;3.95;0.98;;;16.80;81.00;;;;;;5071875;28;20044;-65
2022/09/03 07:08:49;;;;;;;2.47;1.15;;;16.80;80.80;;;;;;5071787;28;20519;-66
2022/09/03 07:11:21;;;;;;;2.55;0.93;;;16.90;80.80;;;;;;5071804;28;20041;-65
2022/09/03 07:13:49;;;;;;;5.03;1.08;;;16.90;80.90;;;;;;5073014;28;20359;-65
2022/09/03 07:16:18;;;;;;;4.20;0.95;;;16.90;80.60;;;;;;5072900;28;20033;-64
2022/09/03 07:18:45;;;;;;;2.60;1.10;;;17.00;80.70;;;;;;5069094;28;20556;-65
2022/09/03 07:21:13;;;;;;;2.85;1.00;;;17.00;80.70;;;;;;5071402;28;20043;-65
2022/09/03 07:23:39;;;;;;;3.08;0.95;;;17.00;80.30;;;;;;5071723;28;20048;-64
2022/09/03 07:26:08;;;;;;;2.60;0.95;;;17.10;80.20;;;;;;5054847;28;20080;-64
2022/09/03 07:28:35;;;;;;;2.75;0.85;;;17.20;80.60;;;;;;5071668;28;20063;-66
2022/09/03 07:31:04;;;;;;;10.63;1.10;;;17.30;80.50;;;;;;5071569;28;20435;-65
2022/09/03 07:33:31;;;;;;;2.05;0.98;;;17.40;80.30;;;;;;5071162;28;20128;-64
2022/09/03 07:36:06;;;;;;;3.63;1.00;;;17.40;80.60;;;;;;5071326;28;20052;-66
2022/09/03 07:38:35;;;;;;;2.45;0.90;;;17.50;80.30;;;;;;5071486;28;20129;-67
2022/09/03 07:41:04;;;;;;;1.63;0.93;;;17.60;80.30;;;;;;5072533;28;20040;-67
2022/09/03 07:43:45;;;;;;;1.88;0.93;;;17.70;79.90;;;;;;5071021;28;20497;-66
2022/09/03 07:46:22;;;;;;;3.03;1.13;;;17.80;79.70;;;;;;5071134;28;20131;-65
2022/09/03 07:48:50;;;;;;;2.30;1.13;;;18.00;79.70;;;;;;5068965;28;20067;-63
2022/09/03 07:51:17;;;;;;;4.35;0.82;;;18.10;79.70;;;;;;5072376;28;20040;-63
2022/09/03 07:53:47;;;;;;;4.40;1.15;;;18.20;79.40;;;;;;5071018;28;20104;-66
2022/09/03 07:56:14;;;;;;;;;;;18.30;79.10;;;;;;5070935;28;20036;-65
2022/09/03 07:58:41;;;;;;;4.28;1.20;;;18.50;79.20;;;;;;5070642;28;19964;-66
2022/09/03 08:01:09;;;;;;;4.07;1.20;;;18.60;78.90;;;;;;5070890;28;20490;-67
2022/09/03 08:03:36;;;;;;;2.00;0.80;;;18.80;78.50;;;;;;5071031;28;20037;-66
2022/09/03 08:06:04;;;;;;;1.85;0.98;;;19.00;78.00;;;;;;5070837;28;20040;-65
2022/09/03 08:08:31;;;;;;;2.58;1.02;;;19.30;78.00;;;;;;5053926;28;20060;-66
2022/09/03 08:11:09;;;;;;;2.80;0.90;;;19.70;78.40;;;;;;5070963;28;20048;-67
2022/09/03 08:13:39;;;;;;;2.78;1.10;;;20.10;77.90;;;;;;5070780;28;20465;-66
2022/09/03 08:16:06;;;;;;;2.10;0.82;;;20.60;77.00;;;;;;5054249;28;20152;-65
2022/09/03 08:18:36;;;;;;;1.85;0.93;;;20.70;76.60;;;;;;5068304;28;20040;-65
2022/09/03 08:21:13;;;;;;;3.42;1.13;;;20.90;76.00;;;;;;5070825;28;20064;-65
2022/09/03 08:23:41;;;;;;;2.58;1.00;;;21.00;74.70;;;;;;5070898;28;20044;-65
2022/09/03 08:26:07;;;;;;;3.10;1.10;;;21.20;74.20;;;;;;5070619;28;20078;-67
2022/09/03 08:28:35;;;;;;;4.45;1.10;;;21.60;74.10;;;;;;5070570;28;20089;-66
2022/09/03 08:31:18;;;;;;;4.30;1.20;;;21.90;74.00;;;;;;5071814;28;20040;-66
2022/09/03 08:33:46;;;;;;;3.38;1.23;;;22.40;73.90;;;;;;5070589;28;20037;-65
2022/09/03 08:36:15;;;;;;;4.65;1.20;;;22.80;73.60;;;;;;5070803;28;20044;-67
2022/09/03 08:38:44;;;;;;;1.83;0.80;;;23.30;72.20;;;;;;5070578;28;20040;-68
2022/09/03 08:41:28;;;;;;;3.28;1.15;;;23.70;71.50;;;;;;5071753;28;20751;-66
2022/09/03 08:44:27;;;;;;;3.60;1.20;;;24.00;70.00;;;;;;5070438;28;20040;-67
2022/09/03 08:47:21;;;;;;;4.15;1.10;;;24.20;67.80;;;;;;5069922;28;20049;-68
2022/09/03 08:49:56;;;;;;;1.45;0.80;;;24.50;66.70;;;;;;5070426;28;20081;-69
2022/09/03 08:52:33;;;;;;;3.88;0.93;;;24.80;68.50;;;;;;5070235;28;20501;-66
2022/09/03 08:55:11;;;;;;;5.22;0.93;;;25.10;67.10;;;;;;5070347;28;20444;-68
2022/09/03 08:57:44;;;;;;;2.17;0.85;;;25.20;64.10;;;;;;5070521;28;20046;-67
2022/09/03 09:00:11;;;;;;;2.90;1.02;;;25.20;64.30;;;;;;5053903;28;20033;-65
2022/09/03 09:03:03;;;;;;;2.85;0.70;;;25.20;65.10;;;;;;5053661;28;20071;-65
2022/09/03 09:05:59;;;;;;;2.90;1.05;;;25.40;63.70;;;;;;5070194;28;20040;-65
2022/09/03 09:08:58;;;;;;;3.75;1.02;;;25.70;63.10;;;;;;5090001;28;20051;-65
2022/09/03 09:11:48;;;;;;;4.38;0.88;;;25.90;62.80;;;;;;5095530;28;20531;-66
2022/09/03 09:14:26;;;;;;;2.97;0.80;;;26.10;61.70;;;;;;5077352;28;20044;-65
2022/09/03 09:16:57;;;;;;;2.28;0.80;;;26.20;62.70;;;;;;5077247;28;20076;-66
2022/09/03 09:19:26;;;;;;;1.90;0.80;;;26.30;61.40;;;;;;5076358;28;20579;-65
2022/09/03 09:22:06;;;;;;;1.67;0.70;;;26.50;61.80;;;;;;5077233;28;20047;-66
2022/09/03 09:24:43;;;;;;;1.83;0.75;;;26.60;60.90;;;;;;5077178;28;20557;-65
2022/09/03 09:27:15;;;;;;;4.53;1.05;;;26.70;61.30;;;;;;5060737;28;20100;-64
2022/09/03 09:29:45;;;;;;;2.38;0.73;;;26.90;61.40;;;;;;5077369;28;20492;-65
2022/09/03 09:32:13;;;;;;;5.38;0.95;;;27.10;60.90;;;;;;5095150;28;20032;-65
2022/09/03 09:34:43;;;;;;;2.17;0.95;;;27.40;59.70;;;;;;5076999;28;20423;-64
2022/09/03 09:37:14;;;;;;;3.13;0.90;;;27.40;60.30;;;;;;5056653;28;20052;-64
2022/09/03 09:39:52;;;;;;;2.65;0.77;;;27.60;59.30;;;;;;5094264;28;20492;-65
2022/09/03 09:42:21;;;;;;;2.45;0.82;;;27.70;58.30;;;;;;5076500;28;20512;-65
2022/09/03 09:44:47;;;;;;;3.13;1.02;;;27.90;58.50;;;;;;5094753;28;20072;-64
2022/09/03 09:47:31;;;;;;;2.58;0.60;;;27.90;57.70;;;;;;5074069;28;20078;-64
2022/09/03 09:49:59;;;;;;;1.95;0.73;;;28.00;56.40;;;;;;5094858;28;20097;-64
2022/09/03 09:52:28;;;;;;;2.88;0.88;;;27.90;57.40;;;;;;5076460;28;20075;-65
2022/09/03 09:55:07;;;;;;;2.53;0.90;;;28.00;57.20;;;;;;5094369;28;20127;-64
2022/09/03 09:57:33;;;;;;;5.22;1.13;;;28.30;57.50;;;;;;5059554;28;20518;-64
2022/09/03 10:00:15;;;;;;;4.57;0.90;;;28.50;56.20;;;;;;5094664;28;20036;-65
2022/09/03 10:02:53;;;;;;;4.63;1.02;;;28.60;56.30;;;;;;5059579;28;20492;-64
2022/09/03 20:13:07;;;;;;;3.08;1.50;;;18.30;78.00;;;;;;5117324;27;20115;-76
2022/09/03 20:15:58;;;;;;;4.78;1.80;;;18.30;78.20;;;;;;5135535;27;20058;-77
2022/09/03 20:18:42;;;;;;;3.92;1.70;;;18.20;78.60;;;;;;5120039;27;20051;-72
2022/09/03 20:21:23;;;;;;;2.42;1.60;;;18.20;78.50;;;;;;5121436;27;20505;-72
2022/09/03 20:24:01;;;;;;;3.33;1.60;;;18.10;78.70;;;;;;5140153;27;20035;-71
2022/09/03 20:26:54;;;;;;;2.50;1.67;;;18.10;79.10;;;;;;5120909;27;20130;-72
2022/09/03 20:29:53;;;;;;;3.92;1.48;;;18.00;79.40;;;;;;5113925;27;20046;-72
2022/09/03 20:32:46;;;;;;;4.20;1.45;;;18.00;79.50;;;;;;5116727;27;20034;-70
2022/09/03 20:35:15;;;;;;;1.85;1.45;;;18.00;79.60;;;;;;5151324;27;20481;-73
2022/09/03 20:37:44;;;;;;;3.35;1.73;;;17.90;79.80;;;;;;5095957;28;20051;-72
2022/09/03 20:40:40;;;;;;;4.68;1.48;;;17.90;80.10;;;;;;5113374;28;20138;-71
2022/09/03 20:43:17;;;;;;;2.60;1.55;;;17.80;80.30;;;;;;5109346;28;20035;-73
2022/09/03 20:46:22;;;;;;;4.05;1.38;;;17.80;80.10;;;;;;5103436;28;20040;-73
2022/09/03 20:49:15;;;;;;;7.05;1.95;;;17.80;80.10;;;;;;5090322;28;20046;-71
2022/09/03 20:52:02;;;;;;;3.78;1.20;;;17.80;80.30;;;;;;5079197;28;20043;-71
2022/09/03 20:54:34;;;;;;;6.45;1.55;;;17.80;80.20;;;;;;5112473;28;20118;-71
2022/09/03 20:57:09;;;;;;;4.15;1.80;;;17.80;80.20;;;;;;5112874;28;20093;-72
2022/09/03 20:59:50;;;;;;;6.47;1.45;;;17.80;80.40;;;;;;5111787;28;20047;-74
2022/09/03 21:02:17;;;;;;;;;;;17.70;80.60;;;;;;5106478;27;20039;-73
2022/09/03 21:04:55;;;;;;;4.32;1.48;;;17.70;80.40;;;;;;5098845;28;19927;-72
2022/09/03 21:07:34;;;;;;;3.58;1.30;;;17.70;80.40;;;;;;5099169;28;20040;-71
2022/09/03 21:10:18;;;;;;;5.50;1.70;;;17.70;80.90;;;;;;5111411;28;20090;-70
2022/09/03 21:12:53;;;;;;;3.35;1.55;;;17.70;81.10;;;;;;5113206;28;20297;-73
2022/09/03 21:15:47;;;;;;;5.35;1.80;;;17.70;81.00;;;;;;5113079;28;20417;-73
2022/09/03 21:18:22;;;;;;;7.57;1.75;;;17.60;81.20;;;;;;5111084;28;20035;-74
2022/09/03 21:21:14;;;;;;;2.97;1.58;;;17.60;81.20;;;;;;5112919;28;20032;-72
2022/09/03 21:23:45;;;;;;;3.47;1.52;;;17.60;81.00;;;;;;5109511;28;20051;-74
2022/09/03 21:26:20;;;;;;;2.28;1.55;;;17.60;80.90;;;;;;5112988;28;20488;-75
2022/09/03 21:29:06;;;;;;;4.10;1.90;;;17.50;81.00;;;;;;5093404;28;20070;-73
2022/09/03 21:31:43;;;;;;;3.70;1.70;;;17.40;81.00;;;;;;5112395;28;20082;-74
2022/09/03 21:34:17;;;;;;;6.10;2.55;;;17.40;81.10;;;;;;5113102;28;20414;-73
2022/09/03 21:36:45;;;;;;;2.20;1.60;;;17.40;81.40;;;;;;5122726;27;20058;-73
2022/09/03 21:39:19;;;;;;;2.78;1.33;;;17.30;82.10;;;;;;5116557;27;20039;-73
2022/09/03 21:42:08;;;;;;;3.53;2.05;;;17.20;81.40;;;;;;5099280;27;20043;-73
2022/09/03 21:44:49;;;;;;;2.70;1.42;;;17.20;81.60;;;;;;5134982;27;20362;-73
2022/09/03 21:47:20;;;;;;;4.90;1.38;;;17.10;81.60;;;;;;5149572;27;20102;-74
2022/09/03 21:50:10;;;;;;;5.65;1.90;;;17.10;81.50;;;;;;5116159;27;20045;-74
2022/09/03 21:52:52;;;;;;;4.28;1.80;;;17.10;81.60;;;;;;5116047;27;20047;-74
2022/09/03 21:55:33;;;;;;;6.07;2.08;;;17.10;81.80;;;;;;5134711;27;20043;-74
2022/09/03 21:58:37;;;;;;;5.82;1.63;;;17.00;81.90;;;;;;5116014;27;20081;-74
2022/09/03 22:01:11;;;;;;;2.88;1.40;;;16.90;82.20;;;;;;5050142;28;20044;-74
2022/09/03 22:03:38;;;;;;;5.03;1.33;;;16.80;82.30;;;;;;5104708;27;20067;-73
2022/09/03 22:06:28;;;;;;;2.90;1.33;;;16.80;82.30;;;;;;5134117;27;20035;-74
2022/09/03 22:09:23;;;;;;;3.25;1.50;;;16.80;82.40;;;;;;5098881;27;20046;-74
2022/09/03 22:12:12;;;;;;;2.75;1.60;;;16.70;82.20;;;;;;5134266;27;20046;-73
2022/09/03 22:14:49;;;;;;;4.85;1.50;;;16.70;82.40;;;;;;5116109;27;20088;-74
2022/09/03 22:17:33;;;;;;;3.65;1.50;;;16.60;82.40;;;;;;5114420;27;20039;-74
2022/09/03 22:19:59;;;;;;;4.93;1.38;;;16.60;82.60;;;;;;5115838;27;20062;-74
2022/09/03 22:22:31;;;;;;;4.53;1.40;;;16.50;82.60;;;;;;5110461;27;20164;-74
2022/09/03 22:25:11;;;;;;;5.15;1.75;;;16.50;82.90;;;;;;5091082;27;20122;-74
2022/09/03 22:27:43;;;;;;;4.38;1.40;;;16.40;83.00;;;;;;5134168;27;20039;-74
2022/09/03 22:30:20;;;;;;;3.00;1.65;;;16.40;82.80;;;;;;5115831;28;20046;-74
2022/09/03 22:33:21;;;;;;;5.82;1.58;;;16.40;83.00;;;;;;5129534;27;20035;-74
2022/09/03 22:36:15;;;;;;;4.95;1.08;;;16.40;83.10;;;;;;5110126;28;20125;-73
2022/09/03 22:39:05;;;;;;;4.38;1.45;;;16.40;83.00;;;;;;5115518;28;20047;-73
2022/09/03 22:41:46;;;;;;;4.15;1.42;;;16.30;83.00;;;;;;5115409;27;20039;-73
2022/09/03 22:44:41;;;;;;;6.72;1.42;;;16.30;82.90;;;;;;5117774;28;20039;-74
2022/09/03 22:47:49;;;;;;;3.72;1.48;;;16.30;82.70;;;;;;5126141;28;20482;-74
2022/09/03 22:50:43;;;;;;;2.45;1.30;;;16.30;82.60;;;;;;5067726;28;20058;-74
2022/09/03 22:53:30;;;;;;;3.22;1.20;;;16.30;82.30;;;;;;5073027;28;20044;-74
2022/09/03 22:56:09;;;;;;;3.25;1.50;;;16.30;82.30;;;;;;5110229;28;20047;-74
2022/09/03 22:58:49;;;;;;;3.33;1.17;;;16.30;82.20;;;;;;5115378;28;20122;-73
2022/09/03 23:01:16;;;;;;;4.10;1.38;;;16.30;82.20;;;;;;5127844;28;20046;-74
2022/09/03 23:04:05;;;;;;;4.00;1.63;;;16.30;82.10;;;;;;5115472;28;20394;-74
2022/09/03 23:06:34;;;;;;;5.67;1.30;;;16.30;82.20;;;;;;5133943;28;20050;-74
2022/09/03 23:09:16;;;;;;;3.33;1.20;;;16.30;82.00;;;;;;5115065;27;20035;-74
2022/09/03 23:12:03;;;;;;;2.70;1.15;;;16.30;81.70;;;;;;5113147;28;20044;-74
2022/09/03 23:14:40;;;;;;;2.97;1.17;;;16.30;81.40;;;;;;5095248;28;20112;-74
2022/09/03 23:17:19;;;;;;;6.40;1.60;;;16.40;81.10;;;;;;5094960;28;20128;-74
2022/09/03 23:20:09;;;;;;;4.53;2.05;;;16.40;80.90;;;;;;5094721;28;20047;-73
2022/09/03 23:22:43;;;;;;;3.45;1.00;;;16.50;80.60;;;;;;5133747;27;20487;-74
2022/09/03 23:25:14;;;;;;;2.70;1.10;;;16.50;80.30;;;;;;5118997;27;20095;-74
2022/09/03 23:27:52;;;;;;;1.90;1.25;;;16.50;80.10;;;;;;5153468;27;20039;-74
2022/09/03 23:30:18;;;;;;;3.25;1.02;;;16.60;80.10;;;;;;5118852;27;20502;-74
2022/09/03 23:32:44;;;;;;;5.88;1.30;;;16.50;79.90;;;;;;5137318;27;20103;-74
2022/09/03 23:35:17;;;;;;;3.47;1.30;;;16.60;79.80;;;;;;5137506;27;20046;-74